sensor_id;sensor_type;location;lat;lon;timestamp;pressure;altitude;pressure_sealevel;temperature;humidity
14393;BME280;7281;42.678;23.372;2023-03-19T00:00:43;95655.63;;;8.50;38.44
14393;BME280;7281;42.678;23.372;2023-03-19T00:03:09;95661.16;;;8.42;39.06
14393;BME280;7281;42.678;23.372;2023-03-19T00:05:37;95656.13;;;8.29;39.03
14393;BME280;7281;42.678;23.372;2023-03-19T00:08:04;95654.88;;;8.32;38.41
14393;BME280;7281;42.678;23.372;2023-03-19T00:10:31;95646.94;;;8.38;38.32
14393;BME280;7281;42.678;23.372;2023-03-19T00:12:58;95639.88;;;8.27;38.68
14393;BME280;7281;42.678;23.372;2023-03-19T00:15:25;95649.13;;;8.23;38.55
14393;BME280;7281;42.678;23.372;2023-03-19T00:17:52;95647.66;;;7.97;39.04
14393;BME280;7281;42.678;23.372;2023-03-19T00:20:19;95655.66;;;8.02;39.25
14393;BME280;7281;42.678;23.372;2023-03-19T00:22:47;95641.09;;;7.95;39.21
14393;BME280;7281;42.678;23.372;2023-03-19T00:25:14;95639.50;;;7.94;39.63
14393;BME280;7281;42.678;23.372;2023-03-19T00:27:41;95616.41;;;8.09;38.97
14393;BME280;7281;42.678;23.372;2023-03-19T00:30:10;95639.84;;;7.68;40.21
14393;BME280;7281;42.678;23.372;2023-03-19T00:32:37;95638.97;;;8.03;38.96
14393;BME280;7281;42.678;23.372;2023-03-19T00:35:06;95638.91;;;8.10;38.96
14393;BME280;7281;42.678;23.372;2023-03-19T00:37:34;95630.75;;;8.18;39.11
14393;BME280;7281;42.678;23.372;2023-03-19T00:40:01;95630.38;;;8.14;38.93
14393;BME280;7281;42.678;23.372;2023-03-19T00:42:29;95625.56;;;8.00;39.45
14393;BME280;7281;42.678;23.372;2023-03-19T00:44:57;95623.25;;;8.10;38.80
14393;BME280;7281;42.678;23.372;2023-03-19T00:47:24;95625.09;;;7.91;39.32
14393;BME280;7281;42.678;23.372;2023-03-19T00:49:51;95618.00;;;7.80;39.95
14393;BME280;7281;42.678;23.372;2023-03-19T00:52:18;95612.84;;;7.44;39.84
14393;BME280;7281;42.678;23.372;2023-03-19T00:54:45;95624.59;;;7.65;40.14
14393;BME280;7281;42.678;23.372;2023-03-19T00:57:12;95622.94;;;6.73;42.32
14393;BME280;7281;42.678;23.372;2023-03-19T00:59:38;95624.22;;;6.89;41.53
14393;BME280;7281;42.678;23.372;2023-03-19T01:02:05;95624.72;;;6.79;42.07
14393;BME280;7281;42.678;23.372;2023-03-19T01:04:32;95621.16;;;7.16;41.54
14393;BME280;7281;42.678;23.372;2023-03-19T01:06:59;95616.53;;;7.37;40.84
14393;BME280;7281;42.678;23.372;2023-03-19T01:09:26;95613.47;;;7.58;40.51
14393;BME280;7281;42.678;23.372;2023-03-19T01:11:53;95619.38;;;7.65;40.03
14393;BME280;7281;42.678;23.372;2023-03-19T01:14:20;95617.81;;;7.64;40.06
14393;BME280;7281;42.678;23.372;2023-03-19T01:16:47;95613.91;;;7.55;40.83
14393;BME280;7281;42.678;23.372;2023-03-19T01:19:14;95610.91;;;7.69;40.67
14393;BME280;7281;42.678;23.372;2023-03-19T01:21:42;95600.75;;;7.50;40.39
14393;BME280;7281;42.678;23.372;2023-03-19T01:24:15;95609.56;;;7.49;40.61
14393;BME280;7281;42.678;23.372;2023-03-19T01:26:43;95612.25;;;7.60;40.59
14393;BME280;7281;42.678;23.372;2023-03-19T01:29:26;95606.53;;;7.81;40.01
14393;BME280;7281;42.678;23.372;2023-03-19T01:31:55;95591.03;;;7.57;40.51
14393;BME280;7281;42.678;23.372;2023-03-19T01:34:38;95606.66;;;7.57;39.97
14393;BME280;7281;42.678;23.372;2023-03-19T01:37:09;95597.53;;;7.66;39.93
14393;BME280;7281;42.678;23.372;2023-03-19T01:39:38;95602.22;;;7.57;40.44
14393;BME280;7281;42.678;23.372;2023-03-19T01:42:09;95610.72;;;7.53;40.63
14393;BME280;7281;42.678;23.372;2023-03-19T01:44:44;95592.59;;;7.58;40.28
14393;BME280;7281;42.678;23.372;2023-03-19T01:47:34;95602.31;;;7.51;40.16
14393;BME280;7281;42.678;23.372;2023-03-19T01:50:38;95610.28;;;7.19;40.49
14393;BME280;7281;42.678;23.372;2023-03-19T01:53:29;95611.38;;;7.48;40.27
14393;BME280;7281;42.678;23.372;2023-03-19T01:56:30;95606.81;;;7.26;40.35
14393;BME280;7281;42.678;23.372;2023-03-19T01:59:17;95611.13;;;7.13;41.34
14393;BME280;7281;42.678;23.372;2023-03-19T02:02:12;95604.34;;;6.94;41.06
14393;BME280;7281;42.678;23.372;2023-03-19T02:04:43;95606.88;;;7.19;40.51
14393;BME280;7281;42.678;23.372;2023-03-19T02:07:13;95609.22;;;7.27;40.59
14393;BME280;7281;42.678;23.372;2023-03-19T02:09:41;95615.81;;;7.30;40.88
14393;BME280;7281;42.678;23.372;2023-03-19T02:12:08;95610.50;;;7.36;40.83
14393;BME280;7281;42.678;23.372;2023-03-19T02:14:35;95608.94;;;7.35;41.16
14393;BME280;7281;42.678;23.372;2023-03-19T02:17:03;95602.75;;;7.48;40.39
14393;BME280;7281;42.678;23.372;2023-03-19T02:22:16;95606.59;;;7.27;41.04
14393;BME280;7281;42.678;23.372;2023-03-19T02:25:15;95610.88;;;7.40;40.23
14393;BME280;7281;42.678;23.372;2023-03-19T02:27:46;95611.22;;;7.25;41.07
14393;BME280;7281;42.678;23.372;2023-03-19T02:30:25;95610.44;;;7.25;40.95
14393;BME280;7281;42.678;23.372;2023-03-19T02:32:53;95614.78;;;7.12;41.36
14393;BME280;7281;42.678;23.372;2023-03-19T02:35:21;95615.38;;;7.33;40.09
14393;BME280;7281;42.678;23.372;2023-03-19T02:37:47;95615.06;;;7.22;41.21
14393;BME280;7281;42.678;23.372;2023-03-19T02:40:40;95620.72;;;7.19;40.28
14393;BME280;7281;42.678;23.372;2023-03-19T02:43:09;95611.38;;;7.12;39.99
14393;BME280;7281;42.678;23.372;2023-03-19T02:45:36;95612.75;;;7.14;40.36
14393;BME280;7281;42.678;23.372;2023-03-19T02:48:03;95616.31;;;7.20;39.71
14393;BME280;7281;42.678;23.372;2023-03-19T02:50:30;95613.91;;;7.18;40.21
14393;BME280;7281;42.678;23.372;2023-03-19T02:52:57;95616.50;;;7.00;40.25
14393;BME280;7281;42.678;23.372;2023-03-19T02:55:24;95615.75;;;6.93;39.93
14393;BME280;7281;42.678;23.372;2023-03-19T02:57:51;95623.84;;;6.85;40.41
14393;BME280;7281;42.678;23.372;2023-03-19T03:00:18;95624.31;;;6.82;40.53
14393;BME280;7281;42.678;23.372;2023-03-19T03:02:46;95617.91;;;6.78;40.10
14393;BME280;7281;42.678;23.372;2023-03-19T03:05:13;95620.78;;;6.70;40.42
14393;BME280;7281;42.678;23.372;2023-03-19T03:07:40;95614.31;;;6.55;40.98
14393;BME280;7281;42.678;23.372;2023-03-19T03:10:10;95625.19;;;6.70;41.19
14393;BME280;7281;42.678;23.372;2023-03-19T03:12:37;95627.06;;;6.87;41.03
14393;BME280;7281;42.678;23.372;2023-03-19T03:15:05;95634.25;;;6.67;41.49
14393;BME280;7281;42.678;23.372;2023-03-19T03:17:38;95638.00;;;6.71;41.09
14393;BME280;7281;42.678;23.372;2023-03-19T03:20:06;95638.41;;;6.68;41.21
14393;BME280;7281;42.678;23.372;2023-03-19T03:22:33;95627.31;;;6.79;40.65
14393;BME280;7281;42.678;23.372;2023-03-19T03:24:59;95643.00;;;6.73;41.47
14393;BME280;7281;42.678;23.372;2023-03-19T03:27:28;95645.28;;;6.87;40.98
14393;BME280;7281;42.678;23.372;2023-03-19T03:29:56;95637.88;;;6.84;41.87
14393;BME280;7281;42.678;23.372;2023-03-19T03:32:23;95631.94;;;6.77;41.46
14393;BME280;7281;42.678;23.372;2023-03-19T03:34:50;95640.25;;;6.68;41.72
14393;BME280;7281;42.678;23.372;2023-03-19T03:37:17;95646.81;;;6.70;41.30
14393;BME280;7281;42.678;23.372;2023-03-19T03:39:44;95633.59;;;6.47;42.40
14393;BME280;7281;42.678;23.372;2023-03-19T03:42:12;95646.53;;;6.60;42.06
14393;BME280;7281;42.678;23.372;2023-03-19T03:44:39;95655.31;;;6.59;41.76
14393;BME280;7281;42.678;23.372;2023-03-19T03:47:07;95651.13;;;6.83;41.41
14393;BME280;7281;42.678;23.372;2023-03-19T03:49:34;95648.19;;;6.48;42.11
14393;BME280;7281;42.678;23.372;2023-03-19T03:52:01;95651.53;;;6.55;41.59
14393;BME280;7281;42.678;23.372;2023-03-19T03:54:31;95661.28;;;6.66;41.14
14393;BME280;7281;42.678;23.372;2023-03-19T03:56:58;95656.44;;;6.70;41.63
14393;BME280;7281;42.678;23.372;2023-03-19T03:59:28;95661.28;;;6.66;41.42
14393;BME280;7281;42.678;23.372;2023-03-19T04:01:55;95662.22;;;6.47;41.98
14393;BME280;7281;42.678;23.372;2023-03-19T04:04:22;95665.38;;;6.56;41.34
14393;BME280;7281;42.678;23.372;2023-03-19T04:06:49;95663.94;;;6.60;41.48
14393;BME280;7281;42.678;23.372;2023-03-19T04:09:33;95659.34;;;6.55;41.39
14393;BME280;7281;42.678;23.372;2023-03-19T04:12:00;95655.75;;;6.56;41.75
14393;BME280;7281;42.678;23.372;2023-03-19T04:14:27;95659.78;;;6.52;41.49
14393;BME280;7281;42.678;23.372;2023-03-19T04:16:55;95653.91;;;6.32;41.88
14393;BME280;7281;42.678;23.372;2023-03-19T04:19:22;95656.34;;;6.27;42.35
14393;BME280;7281;42.678;23.372;2023-03-19T04:21:48;95651.75;;;6.29;42.24
14393;BME280;7281;42.678;23.372;2023-03-19T04:24:15;95655.94;;;6.30;42.30
14393;BME280;7281;42.678;23.372;2023-03-19T04:26:42;95655.53;;;6.33;42.12
14393;BME280;7281;42.678;23.372;2023-03-19T04:29:09;95657.09;;;6.34;42.20
14393;BME280;7281;42.678;23.372;2023-03-19T04:31:36;95660.47;;;6.41;41.61
14393;BME280;7281;42.678;23.372;2023-03-19T04:34:03;95667.06;;;6.44;42.16
14393;BME280;7281;42.678;23.372;2023-03-19T04:36:31;95674.66;;;6.45;42.05
14393;BME280;7281;42.678;23.372;2023-03-19T04:38:58;95668.56;;;6.27;42.60
14393;BME280;7281;42.678;23.372;2023-03-19T04:41:25;95668.81;;;6.18;42.52
14393;BME280;7281;42.678;23.372;2023-03-19T04:44:21;95669.22;;;6.22;41.94
14393;BME280;7281;42.678;23.372;2023-03-19T04:46:49;95665.50;;;6.36;42.38
14393;BME280;7281;42.678;23.372;2023-03-19T04:49:18;95670.63;;;6.18;42.63
14393;BME280;7281;42.678;23.372;2023-03-19T04:51:45;95659.84;;;6.14;42.45
14393;BME280;7281;42.678;23.372;2023-03-19T04:54:12;95665.22;;;6.20;42.84
14393;BME280;7281;42.678;23.372;2023-03-19T04:56:39;95667.53;;;6.34;41.87
14393;BME280;7281;42.678;23.372;2023-03-19T04:59:06;95665.81;;;6.15;42.54
14393;BME280;7281;42.678;23.372;2023-03-19T05:01:33;95667.59;;;6.21;42.25
14393;BME280;7281;42.678;23.372;2023-03-19T05:04:03;95675.91;;;6.36;41.91
14393;BME280;7281;42.678;23.372;2023-03-19T05:06:33;95668.28;;;6.41;42.12
14393;BME280;7281;42.678;23.372;2023-03-19T05:08:59;95670.78;;;6.23;42.88
14393;BME280;7281;42.678;23.372;2023-03-19T05:11:27;95669.53;;;6.32;42.75
14393;BME280;7281;42.678;23.372;2023-03-19T05:14:03;95673.31;;;6.36;42.90
14393;BME280;7281;42.678;23.372;2023-03-19T05:16:42;95671.91;;;6.40;42.07
14393;BME280;7281;42.678;23.372;2023-03-19T05:19:09;95671.38;;;6.56;41.72
14393;BME280;7281;42.678;23.372;2023-03-19T05:21:36;95668.09;;;6.67;41.77
14393;BME280;7281;42.678;23.372;2023-03-19T05:24:04;95670.53;;;6.62;41.87
14393;BME280;7281;42.678;23.372;2023-03-19T05:26:34;95650.44;;;6.69;41.58
14393;BME280;7281;42.678;23.372;2023-03-19T05:29:07;95681.41;;;6.77;41.36
14393;BME280;7281;42.678;23.372;2023-03-19T05:31:57;95673.13;;;6.87;42.18
14393;BME280;7281;42.678;23.372;2023-03-19T05:34:25;95671.34;;;6.87;41.79
14393;BME280;7281;42.678;23.372;2023-03-19T05:36:52;95669.47;;;6.94;41.62
14393;BME280;7281;42.678;23.372;2023-03-19T05:39:19;95671.81;;;7.02;41.84
14393;BME280;7281;42.678;23.372;2023-03-19T05:41:48;95674.34;;;6.84;42.28
14393;BME280;7281;42.678;23.372;2023-03-19T05:44:20;95668.56;;;7.07;41.64
14393;BME280;7281;42.678;23.372;2023-03-19T05:47:00;95684.66;;;6.97;41.82
14393;BME280;7281;42.678;23.372;2023-03-19T05:49:31;95675.31;;;7.14;41.65
14393;BME280;7281;42.678;23.372;2023-03-19T05:51:58;95675.59;;;7.25;41.49
14393;BME280;7281;42.678;23.372;2023-03-19T05:54:25;95679.06;;;7.18;41.97
14393;BME280;7281;42.678;23.372;2023-03-19T05:56:59;95685.16;;;7.31;42.09
14393;BME280;7281;42.678;23.372;2023-03-19T05:59:47;95673.00;;;7.43;41.62
14393;BME280;7281;42.678;23.372;2023-03-19T06:02:26;95670.97;;;7.27;40.81
14393;BME280;7281;42.678;23.372;2023-03-19T06:05:08;95670.91;;;7.51;40.83
14393;BME280;7281;42.678;23.372;2023-03-19T06:07:35;95671.41;;;7.42;41.42
14393;BME280;7281;42.678;23.372;2023-03-19T06:10:06;95668.53;;;7.50;41.91
14393;BME280;7281;42.678;23.372;2023-03-19T06:12:34;95665.34;;;7.48;41.22
14393;BME280;7281;42.678;23.372;2023-03-19T06:15:19;95669.25;;;7.57;40.50
14393;BME280;7281;42.678;23.372;2023-03-19T06:18:06;95666.78;;;7.62;40.96
14393;BME280;7281;42.678;23.372;2023-03-19T06:20:34;95666.50;;;7.88;40.60
14393;BME280;7281;42.678;23.372;2023-03-19T06:23:01;95673.00;;;7.97;40.50
14393;BME280;7281;42.678;23.372;2023-03-19T06:25:28;95675.59;;;7.97;40.00
14393;BME280;7281;42.678;23.372;2023-03-19T06:27:55;95670.94;;;8.17;39.81
14393;BME280;7281;42.678;23.372;2023-03-19T06:30:26;95674.19;;;8.12;40.46
14393;BME280;7281;42.678;23.372;2023-03-19T06:32:56;95682.91;;;8.25;39.76
14393;BME280;7281;42.678;23.372;2023-03-19T06:35:23;95680.19;;;8.31;39.49
14393;BME280;7281;42.678;23.372;2023-03-19T06:37:51;95687.28;;;8.42;39.07
14393;BME280;7281;42.678;23.372;2023-03-19T06:40:19;95684.34;;;8.50;39.21
14393;BME280;7281;42.678;23.372;2023-03-19T06:42:47;95684.09;;;8.22;39.67
14393;BME280;7281;42.678;23.372;2023-03-19T06:45:15;95681.38;;;8.17;40.14
14393;BME280;7281;42.678;23.372;2023-03-19T06:47:45;95685.66;;;8.30;41.91
14393;BME280;7281;42.678;23.372;2023-03-19T06:50:14;95691.16;;;8.51;41.24
14393;BME280;7281;42.678;23.372;2023-03-19T06:52:42;95687.25;;;8.83;40.73
14393;BME280;7281;42.678;23.372;2023-03-19T06:55:10;95699.41;;;8.78;39.55
14393;BME280;7281;42.678;23.372;2023-03-19T06:57:41;95694.78;;;8.91;40.03
14393;BME280;7281;42.678;23.372;2023-03-19T07:00:08;95698.19;;;9.03;39.19
14393;BME280;7281;42.678;23.372;2023-03-19T07:02:37;95696.16;;;9.05;39.07
14393;BME280;7281;42.678;23.372;2023-03-19T07:05:04;95698.09;;;9.10;38.43
14393;BME280;7281;42.678;23.372;2023-03-19T07:07:31;95696.75;;;9.19;39.00
14393;BME280;7281;42.678;23.372;2023-03-19T07:09:58;95695.81;;;9.37;38.11
14393;BME280;7281;42.678;23.372;2023-03-19T07:12:25;95686.38;;;9.47;38.67
14393;BME280;7281;42.678;23.372;2023-03-19T07:14:54;95694.22;;;9.59;37.48
14393;BME280;7281;42.678;23.372;2023-03-19T07:17:22;95685.59;;;9.47;37.98
14393;BME280;7281;42.678;23.372;2023-03-19T07:19:50;95690.69;;;9.53;38.49
14393;BME280;7281;42.678;23.372;2023-03-19T07:22:17;95692.28;;;9.66;38.15
14393;BME280;7281;42.678;23.372;2023-03-19T07:24:44;95693.72;;;9.85;37.95
14393;BME280;7281;42.678;23.372;2023-03-19T07:27:11;95689.13;;;10.03;37.08
14393;BME280;7281;42.678;23.372;2023-03-19T07:29:37;95689.41;;;9.90;37.86
14393;BME280;7281;42.678;23.372;2023-03-19T07:32:05;95692.78;;;9.91;37.73
14393;BME280;7281;42.678;23.372;2023-03-19T07:34:31;95683.97;;;10.20;37.68
14393;BME280;7281;42.678;23.372;2023-03-19T07:36:58;95692.69;;;10.09;37.02
14393;BME280;7281;42.678;23.372;2023-03-19T07:39:25;95676.31;;;9.79;37.32
14393;BME280;7281;42.678;23.372;2023-03-19T07:41:52;95673.31;;;10.10;37.73
14393;BME280;7281;42.678;23.372;2023-03-19T07:44:22;95682.59;;;10.29;37.53
14393;BME280;7281;42.678;23.372;2023-03-19T07:46:49;95683.13;;;10.59;37.49
14393;BME280;7281;42.678;23.372;2023-03-19T07:49:16;95668.81;;;10.50;37.07
14393;BME280;7281;42.678;23.372;2023-03-19T07:51:43;95694.09;;;10.56;36.84
14393;BME280;7281;42.678;23.372;2023-03-19T07:54:09;95685.38;;;10.67;36.90
14393;BME280;7281;42.678;23.372;2023-03-19T07:56:36;95685.22;;;10.90;36.55
14393;BME280;7281;42.678;23.372;2023-03-19T07:59:03;95677.59;;;10.89;36.29
14393;BME280;7281;42.678;23.372;2023-03-19T08:01:31;95682.34;;;11.08;36.24
14393;BME280;7281;42.678;23.372;2023-03-19T08:03:58;95679.81;;;11.13;36.23
14393;BME280;7281;42.678;23.372;2023-03-19T08:06:26;95675.19;;;11.20;36.39
14393;BME280;7281;42.678;23.372;2023-03-19T08:08:53;95671.63;;;11.27;35.72
14393;BME280;7281;42.678;23.372;2023-03-19T08:11:21;95682.19;;;10.98;35.16
14393;BME280;7281;42.678;23.372;2023-03-19T08:13:48;95669.69;;;11.39;35.16
14393;BME280;7281;42.678;23.372;2023-03-19T08:16:15;95680.03;;;11.45;35.91
14393;BME280;7281;42.678;23.372;2023-03-19T08:18:42;95672.28;;;11.72;34.93
14393;BME280;7281;42.678;23.372;2023-03-19T08:21:09;95674.22;;;11.81;34.18
14393;BME280;7281;42.678;23.372;2023-03-19T08:23:35;95666.66;;;11.85;34.25
14393;BME280;7281;42.678;23.372;2023-03-19T08:26:02;95664.78;;;11.64;33.39
14393;BME280;7281;42.678;23.372;2023-03-19T08:28:29;95667.81;;;11.72;33.86
14393;BME280;7281;42.678;23.372;2023-03-19T08:30:56;95666.91;;;12.05;34.23
14393;BME280;7281;42.678;23.372;2023-03-19T08:33:23;95659.28;;;12.30;34.13
14393;BME280;7281;42.678;23.372;2023-03-19T08:35:50;95666.75;;;12.38;34.24
14393;BME280;7281;42.678;23.372;2023-03-19T08:38:17;95655.44;;;12.38;33.92
14393;BME280;7281;42.678;23.372;2023-03-19T08:40:45;95654.03;;;12.30;32.47
14393;BME280;7281;42.678;23.372;2023-03-19T08:43:13;95661.47;;;11.68;32.72
14393;BME280;7281;42.678;23.372;2023-03-19T08:45:40;95648.69;;;12.20;31.57
14393;BME280;7281;42.678;23.372;2023-03-19T08:48:07;95644.03;;;12.54;31.63
14393;BME280;7281;42.678;23.372;2023-03-19T08:50:33;95647.78;;;12.63;30.90
14393;BME280;7281;42.678;23.372;2023-03-19T08:53:01;95642.34;;;12.69;30.21
14393;BME280;7281;42.678;23.372;2023-03-19T08:55:28;95634.78;;;13.04;31.20
14393;BME280;7281;42.678;23.372;2023-03-19T08:57:55;95634.78;;;13.09;31.38
14393;BME280;7281;42.678;23.372;2023-03-19T09:00:22;95631.00;;;12.95;33.18
14393;BME280;7281;42.678;23.372;2023-03-19T09:02:48;95628.56;;;13.20;30.80
14393;BME280;7281;42.678;23.372;2023-03-19T09:05:16;95627.03;;;13.30;31.80
14393;BME280;7281;42.678;23.372;2023-03-19T09:07:45;95621.09;;;12.22;31.15
14393;BME280;7281;42.678;23.372;2023-03-19T09:10:12;95621.44;;;12.84;30.14
14393;BME280;7281;42.678;23.372;2023-03-19T09:12:39;95620.31;;;12.75;30.17
14393;BME280;7281;42.678;23.372;2023-03-19T09:15:06;95620.94;;;13.24;29.14
14393;BME280;7281;42.678;23.372;2023-03-19T09:17:34;95608.28;;;13.68;28.76
14393;BME280;7281;42.678;23.372;2023-03-19T09:20:01;95609.09;;;13.68;27.46
14393;BME280;7281;42.678;23.372;2023-03-19T09:22:29;95604.00;;;13.52;27.59
14393;BME280;7281;42.678;23.372;2023-03-19T09:24:56;95613.09;;;13.81;27.58
14393;BME280;7281;42.678;23.372;2023-03-19T09:27:23;95611.34;;;14.21;27.11
14393;BME280;7281;42.678;23.372;2023-03-19T09:29:50;95608.50;;;14.28;26.50
14393;BME280;7281;42.678;23.372;2023-03-19T09:32:17;95605.88;;;14.33;26.99
14393;BME280;7281;42.678;23.372;2023-03-19T09:34:43;95604.59;;;14.56;27.55
14393;BME280;7281;42.678;23.372;2023-03-19T09:37:10;95594.84;;;15.01;27.13
14393;BME280;7281;42.678;23.372;2023-03-19T09:39:37;95593.19;;;15.36;28.74
14393;BME280;7281;42.678;23.372;2023-03-19T09:44:46;95592.69;;;16.02;26.94
14393;BME280;7281;42.678;23.372;2023-03-19T09:47:28;95584.09;;;16.31;26.15
14393;BME280;7281;42.678;23.372;2023-03-19T09:49:59;95590.44;;;15.81;25.32
14393;BME280;7281;42.678;23.372;2023-03-19T09:52:43;95583.56;;;15.80;25.86
14393;BME280;7281;42.678;23.372;2023-03-19T09:57:55;95572.81;;;16.59;29.15
14393;BME280;7281;42.678;23.372;2023-03-19T10:00:34;95572.75;;;16.25;24.41
14393;BME280;7281;42.678;23.372;2023-03-19T10:08:30;95563.91;;;17.36;25.60
14393;BME280;7281;42.678;23.372;2023-03-19T10:11:08;95562.44;;;17.24;23.87
14393;BME280;7281;42.678;23.372;2023-03-19T10:16:38;95536.69;;;17.59;24.12
14393;BME280;7281;42.678;23.372;2023-03-19T10:19:09;95553.13;;;17.56;24.49
14393;BME280;7281;42.678;23.372;2023-03-19T10:21:45;95541.81;;;17.45;24.65
14393;BME280;7281;42.678;23.372;2023-03-19T10:24:36;95537.22;;;17.98;24.21
14393;BME280;7281;42.678;23.372;2023-03-19T10:27:13;95527.03;;;17.68;23.61
14393;BME280;7281;42.678;23.372;2023-03-19T10:29:41;95528.44;;;17.60;23.38
14393;BME280;7281;42.678;23.372;2023-03-19T10:32:19;95524.47;;;17.58;23.21
14393;BME280;7281;42.678;23.372;2023-03-19T10:34:49;95512.25;;;17.62;24.39
14393;BME280;7281;42.678;23.372;2023-03-19T10:37:25;95516.94;;;17.88;23.19
14393;BME280;7281;42.678;23.372;2023-03-19T10:39:57;95511.72;;;18.02;22.92
14393;BME280;7281;42.678;23.372;2023-03-19T10:42:55;95504.63;;;17.79;23.72
14393;BME280;7281;42.678;23.372;2023-03-19T10:45:32;95499.88;;;17.94;23.61
14393;BME280;7281;42.678;23.372;2023-03-19T10:48:03;95496.03;;;18.24;24.49
14393;BME280;7281;42.678;23.372;2023-03-19T10:50:57;95485.91;;;18.77;26.15
14393;BME280;7281;42.678;23.372;2023-03-19T10:53:35;95476.59;;;19.06;24.29
14393;BME280;7281;42.678;23.372;2023-03-19T10:56:19;95465.00;;;19.02;24.39
14393;BME280;7281;42.678;23.372;2023-03-19T10:59:01;95462.63;;;19.01;22.75
14393;BME280;7281;42.678;23.372;2023-03-19T11:04:01;95456.41;;;19.05;23.13
14393;BME280;7281;42.678;23.372;2023-03-19T11:06:37;95450.72;;;19.53;23.73
14393;BME280;7281;42.678;23.372;2023-03-19T11:14:28;95437.97;;;19.41;22.86
14393;BME280;7281;42.678;23.372;2023-03-19T11:17:44;95433.28;;;19.74;26.52
14393;BME280;7281;42.678;23.372;2023-03-19T11:19:54;95413.34;;;19.85;23.61
14393;BME280;7281;42.678;23.372;2023-03-19T11:22:31;95412.13;;;19.91;23.45
14393;BME280;7281;42.678;23.372;2023-03-19T11:25:02;95422.50;;;20.59;24.44
14393;BME280;7281;42.678;23.372;2023-03-19T11:27:33;95410.53;;;20.78;23.26
14393;BME280;7281;42.678;23.372;2023-03-19T11:30:06;95407.44;;;20.85;23.39
14393;BME280;7281;42.678;23.372;2023-03-19T11:35:10;95395.78;;;20.72;22.54
14393;BME280;7281;42.678;23.372;2023-03-19T11:46:24;95387.41;;;20.87;21.55
14393;BME280;7281;42.678;23.372;2023-03-19T11:49:32;95377.34;;;20.84;21.18
14393;BME280;7281;42.678;23.372;2023-03-19T11:55:16;95370.59;;;21.17;21.85
14393;BME280;7281;42.678;23.372;2023-03-19T11:57:56;95368.00;;;21.77;22.14
14393;BME280;7281;42.678;23.372;2023-03-19T12:06:14;95348.72;;;21.89;19.96
14393;BME280;7281;42.678;23.372;2023-03-19T12:11:27;95349.63;;;22.10;20.68
14393;BME280;7281;42.678;23.372;2023-03-19T12:28:35;95314.75;;;23.07;19.19
14393;BME280;7281;42.678;23.372;2023-03-19T12:36:30;95314.22;;;22.85;19.73
14393;BME280;7281;42.678;23.372;2023-03-19T12:39:08;95309.94;;;23.22;19.13
14393;BME280;7281;42.678;23.372;2023-03-19T12:41:40;95299.00;;;22.39;19.32
14393;BME280;7281;42.678;23.372;2023-03-19T12:44:23;95317.75;;;22.13;20.40
14393;BME280;7281;42.678;23.372;2023-03-19T12:47:28;95303.28;;;23.57;20.52
14393;BME280;7281;42.678;23.372;2023-03-19T12:50:07;95306.47;;;23.71;20.73
14393;BME280;7281;42.678;23.372;2023-03-19T12:52:43;95302.19;;;24.11;19.83
14393;BME280;7281;42.678;23.372;2023-03-19T12:57:55;95295.13;;;24.39;19.70
14393;BME280;7281;42.678;23.372;2023-03-19T13:00:33;95296.03;;;24.55;19.53
14393;BME280;7281;42.678;23.372;2023-03-19T13:03:30;95285.41;;;24.02;18.91
14393;BME280;7281;42.678;23.372;2023-03-19T13:06:19;95288.56;;;24.04;18.49
14393;BME280;7281;42.678;23.372;2023-03-19T13:08:58;95283.63;;;23.73;19.31
14393;BME280;7281;42.678;23.372;2023-03-19T13:19:54;95257.91;;;25.74;18.66
14393;BME280;7281;42.678;23.372;2023-03-19T13:22:29;95268.31;;;25.24;18.89
14393;BME280;7281;42.678;23.372;2023-03-19T13:24:57;95250.03;;;25.01;19.05
14393;BME280;7281;42.678;23.372;2023-03-19T13:27:26;95259.00;;;24.81;18.01
14393;BME280;7281;42.678;23.372;2023-03-19T13:29:58;95255.03;;;23.98;18.69
14393;BME280;7281;42.678;23.372;2023-03-19T13:32:48;95260.59;;;24.14;19.47
14393;BME280;7281;42.678;23.372;2023-03-19T13:35:43;95256.50;;;24.40;19.25
14393;BME280;7281;42.678;23.372;2023-03-19T13:38:21;95255.16;;;24.58;19.27
14393;BME280;7281;42.678;23.372;2023-03-19T13:40:53;95256.47;;;24.28;18.81
14393;BME280;7281;42.678;23.372;2023-03-19T13:48:50;95230.88;;;25.39;18.32
14393;BME280;7281;42.678;23.372;2023-03-19T13:56:27;95234.00;;;25.96;18.33
14393;BME280;7281;42.678;23.372;2023-03-19T14:01:43;95234.72;;;25.54;17.89
14393;BME280;7281;42.678;23.372;2023-03-19T14:06:50;95225.47;;;26.22;18.39
14393;BME280;7281;42.678;23.372;2023-03-19T14:09:32;95221.81;;;26.30;18.06
14393;BME280;7281;42.678;23.372;2023-03-19T14:15:00;95226.06;;;26.16;19.00
14393;BME280;7281;42.678;23.372;2023-03-19T14:20:23;95222.19;;;26.29;16.88
14393;BME280;7281;42.678;23.372;2023-03-19T14:28:37;95203.00;;;27.12;17.04
14393;BME280;7281;42.678;23.372;2023-03-19T14:33:52;95215.13;;;26.24;16.76
14393;BME280;7281;42.678;23.372;2023-03-19T14:36:22;95203.44;;;26.32;17.22
14393;BME280;7281;42.678;23.372;2023-03-19T14:38:57;95203.97;;;26.22;16.76
14393;BME280;7281;42.678;23.372;2023-03-19T14:41:27;95188.38;;;26.43;17.33
14393;BME280;7281;42.678;23.372;2023-03-19T14:47:24;95203.34;;;26.44;17.81
14393;BME280;7281;42.678;23.372;2023-03-19T14:53:07;95192.38;;;26.18;17.19
14393;BME280;7281;42.678;23.372;2023-03-19T14:55:41;95199.34;;;25.64;18.07
14393;BME280;7281;42.678;23.372;2023-03-19T14:58:10;95193.66;;;25.38;18.48
14393;BME280;7281;42.678;23.372;2023-03-19T15:00:44;95209.41;;;25.67;18.69
14393;BME280;7281;42.678;23.372;2023-03-19T15:03:33;95205.69;;;25.44;18.79
14393;BME280;7281;42.678;23.372;2023-03-19T15:06:04;95203.88;;;25.08;18.49
14393;BME280;7281;42.678;23.372;2023-03-19T15:08:35;95210.75;;;24.81;18.51
14393;BME280;7281;42.678;23.372;2023-03-19T15:11:37;95207.41;;;24.72;18.72
14393;BME280;7281;42.678;23.372;2023-03-19T15:14:24;95216.56;;;24.71;19.10
14393;BME280;7281;42.678;23.372;2023-03-19T15:17:12;95207.31;;;25.21;18.52
14393;BME280;7281;42.678;23.372;2023-03-19T15:19:41;95218.53;;;25.11;18.95
14393;BME280;7281;42.678;23.372;2023-03-19T15:24:38;95221.00;;;24.67;19.16